Metar z pełnej godziny Komunikat METAR ze strony awiacja.imgw.pl Metar G00 EPKK METAR EPKK 162300Z 09003KT 1600 BR NSC M09/M10 Q1018 R25/51//95 =